Time;durP1;ratioP1;P1;durP2;ratioP2;P2;SDS_P1;SDS_P2;PMS_P1;PMS_P2;Temp;Humidity;BMP_temperature;BMP_pressure;BME280_temperature;BME280_humidity;BME280_pressure;Samples;Min_cycle;Max_cycle;Signal;HPM_P1;HPM_P2
2021/06/03 00:00:23;;;;;;;27.23;15.98;;;;;;;;;;5102847;28;20036;-67
2021/06/03 00:02:48;;;;;;;25.65;16.17;;;;;;;;;;5108096;28;20024;-65
2021/06/03 00:05:13;;;;;;;25.73;14.88;;;;;;;;;;5112794;28;20031;-66
2021/06/03 00:07:39;;;;;;;30.67;16.15;;;;;;;;;;5113247;28;20464;-67
2021/06/03 00:10:05;;;;;;;23.77;16.27;;;;;;;;;;5112609;28;20118;-66
2021/06/03 00:12:31;;;;;;;29.58;16.30;;;;;;;;;;5107413;28;20467;-67
2021/06/03 00:14:56;;;;;;;32.13;16.95;;;;;;;;;;5113082;28;20035;-67
2021/06/03 00:17:21;;;;;;;28.02;16.27;;;;;;;;;;5113076;28;20398;-67
2021/06/03 00:19:47;;;;;;;32.47;16.15;;;;;;;;;;5119670;28;20030;-67
2021/06/03 00:22:12;;;;;;;28.23;17.55;;;;;;;;;;5120232;28;20072;-67
2021/06/03 00:24:37;;;;;;;29.73;16.63;;;;;;;;;;5120137;28;20052;-67
2021/06/03 00:27:03;;;;;;;29.50;17.30;;;;;;;;;;5119937;28;20028;-67
2021/06/03 00:29:28;;;;;;;27.98;16.20;;;;;;;;;;5120011;28;20023;-67
2021/06/03 00:31:53;;;;;;;26.88;17.60;;;;;;;;;;5119586;28;20486;-66
2021/06/03 00:34:19;;;;;;;27.67;17.05;;;;;;;;;;5119995;28;20026;-65
2021/06/03 00:36:44;;;;;;;28.45;16.58;;;;;;;;;;5119900;28;20040;-65
2021/06/03 00:39:09;;;;;;;32.58;18.58;;;;;;;;;;5119969;28;20027;-64
2021/06/03 00:41:35;;;;;;;31.27;18.13;;;;;;;;;;5120383;28;20103;-65
2021/06/03 00:44:02;;;;;;;29.80;17.33;;;;;;;;;;5119593;28;20035;-64
2021/06/03 00:46:27;;;;;;;30.80;19.42;;;;;;;;;;5120010;28;20536;-65
2021/06/03 00:48:53;;;;;;;31.35;18.30;;;;;;;;;;5120089;28;20023;-65
2021/06/03 00:51:19;;;;;;;37.65;20.45;;;;;;;;;;5101827;28;20039;-65
2021/06/03 00:53:44;;;;;;;31.08;18.10;;;;;;;;;;5081088;28;20169;-64
2021/06/03 00:56:10;;;;;;;29.73;18.98;;;;;;;;;;5119489;28;20447;-65
2021/06/03 00:58:35;;;;;;;28.55;18.58;;;;;;;;;;5120088;28;20412;-65
2021/06/03 01:01:01;;;;;;;30.60;18.70;;;;;;;;;;5119615;28;20115;-66
2021/06/03 01:03:27;;;;;;;36.58;18.75;;;;;;;;;;5119231;28;20027;-66
2021/06/03 01:05:54;;;;;;;32.30;19.20;;;;;;;;;;5119825;28;20121;-67
2021/06/03 01:08:22;;;;;;;29.42;19.65;;;;;;;;;;5119619;28;20031;-67
2021/06/03 01:11:07;;;;;;;33.58;19.90;;;;;;;;;;5119613;28;20484;-67
2021/06/03 01:13:33;;;;;;;;;;;;;;;;;;5118849;28;20084;-67
2021/06/03 01:16:00;;;;;;;35.03;20.52;;;;;;;;;;5119423;28;19911;-67
2021/06/03 01:18:26;;;;;;;32.95;20.20;;;;;;;;;;5119467;28;20472;-67
2021/06/03 01:20:52;;;;;;;31.92;19.65;;;;;;;;;;5119626;28;20035;-67
2021/06/03 01:23:20;;;;;;;33.25;20.17;;;;;;;;;;5119460;28;20413;-67
2021/06/03 01:25:46;;;;;;;35.97;21.70;;;;;;;;;;5119473;28;20040;-67
2021/06/03 01:28:12;;;;;;;36.47;21.52;;;;;;;;;;5119219;28;20027;-66
2021/06/03 01:30:45;;;;;;;34.28;21.23;;;;;;;;;;5115764;28;20024;-67
2021/06/03 01:33:13;;;;;;;40.13;21.85;;;;;;;;;;5116207;28;20032;-66
2021/06/03 01:35:40;;;;;;;41.38;24.42;;;;;;;;;;5116247;28;20034;-66
2021/06/03 01:38:06;;;;;;;39.85;21.15;;;;;;;;;;5115904;28;20032;-67
2021/06/03 01:40:33;;;;;;;41.08;22.58;;;;;;;;;;5116057;28;20049;-66
2021/06/03 01:42:59;;;;;;;45.83;24.38;;;;;;;;;;5116188;28;20031;-67
2021/06/03 01:45:24;;;;;;;34.53;21.42;;;;;;;;;;5115802;28;20035;-67
2021/06/03 01:47:51;;;;;;;42.58;23.58;;;;;;;;;;5115065;28;20046;-67
2021/06/03 01:50:17;;;;;;;40.75;22.83;;;;;;;;;;5116119;28;20031;-65
2021/06/03 01:52:42;;;;;;;40.33;22.42;;;;;;;;;;5115858;28;20040;-65
2021/06/03 01:55:10;;;;;;;42.17;22.95;;;;;;;;;;5115762;28;20024;-64
2021/06/03 01:57:36;;;;;;;39.00;22.75;;;;;;;;;;5115415;28;20019;-65
2021/06/03 02:00:03;;;;;;;38.03;21.02;;;;;;;;;;5114727;28;20183;-64
2021/06/03 02:02:29;;;;;;;40.80;21.70;;;;;;;;;;5108397;28;20023;-65
2021/06/03 02:04:54;;;;;;;40.30;21.88;;;;;;;;;;5115473;28;20062;-65
2021/06/03 02:07:19;;;;;;;35.95;20.25;;;;;;;;;;5115587;28;20036;-65
2021/06/03 02:09:45;;;;;;;39.00;22.13;;;;;;;;;;5115013;28;20062;-65
2021/06/03 02:12:11;;;;;;;37.92;21.30;;;;;;;;;;5115526;28;20015;-65
2021/06/03 02:14:38;;;;;;;33.47;19.83;;;;;;;;;;5114903;28;20019;-65
2021/06/03 02:17:08;;;;;;;31.50;19.33;;;;;;;;;;5115464;28;20114;-65
2021/06/03 02:19:36;;;;;;;34.03;18.90;;;;;;;;;;5114620;28;20529;-65
2021/06/03 02:22:03;;;;;;;33.65;19.33;;;;;;;;;;5115211;28;20027;-65
2021/06/03 02:24:29;;;;;;;31.77;19.98;;;;;;;;;;5115443;28;20081;-64
2021/06/03 02:26:54;;;;;;;34.55;19.75;;;;;;;;;;5114988;28;20012;-65
2021/06/03 02:29:20;;;;;;;35.75;20.33;;;;;;;;;;5114841;28;20472;-64
2021/06/03 02:31:46;;;;;;;41.13;20.17;;;;;;;;;;5114924;28;20030;-64
2021/06/03 02:34:12;;;;;;;37.45;21.13;;;;;;;;;;5115128;28;20102;-64
2021/06/03 02:36:37;;;;;;;35.35;20.67;;;;;;;;;;5115317;28;20067;-65
2021/06/03 02:39:04;;;;;;;45.42;21.65;;;;;;;;;;5114619;28;20073;-65
2021/06/03 02:41:29;;;;;;;35.28;20.17;;;;;;;;;;5115144;28;20043;-65
2021/06/03 02:43:54;;;;;;;33.35;18.70;;;;;;;;;;5114378;28;20058;-65
2021/06/03 02:46:21;;;;;;;30.60;17.58;;;;;;;;;;5115132;28;20118;-65
2021/06/03 02:48:46;;;;;;;25.25;16.52;;;;;;;;;;5114384;28;20479;-65
2021/06/03 02:51:11;;;;;;;25.52;17.05;;;;;;;;;;5115043;28;20061;-65
2021/06/03 02:53:37;;;;;;;32.25;16.83;;;;;;;;;;5114551;28;20027;-64
2021/06/03 02:56:03;;;;;;;24.15;15.10;;;;;;;;;;5114778;28;20380;-65
2021/06/03 02:58:28;;;;;;;27.50;17.25;;;;;;;;;;5114525;28;20039;-64
2021/06/03 03:00:53;;;;;;;25.73;17.00;;;;;;;;;;5114619;28;20030;-67
2021/06/03 03:03:19;;;;;;;29.35;17.98;;;;;;;;;;5114794;28;20096;-66
2021/06/03 03:05:44;;;;;;;29.60;17.70;;;;;;;;;;5114215;28;20042;-67
2021/06/03 03:08:10;;;;;;;31.77;17.75;;;;;;;;;;5114692;28;20063;-67
2021/06/03 03:10:38;;;;;;;32.42;17.08;;;;;;;;;;5114051;28;20043;-67
2021/06/03 03:13:04;;;;;;;35.22;19.30;;;;;;;;;;5114320;28;20041;-67
2021/06/03 03:15:29;;;;;;;32.15;18.52;;;;;;;;;;5114133;28;20488;-67
2021/06/03 03:17:54;;;;;;;34.92;19.13;;;;;;;;;;5113975;28;20073;-66
2021/06/03 03:20:20;;;;;;;36.97;20.20;;;;;;;;;;5113815;28;20063;-66
2021/06/03 03:22:46;;;;;;;43.40;21.75;;;;;;;;;;5114259;28;20062;-67
2021/06/03 03:25:12;;;;;;;41.42;22.23;;;;;;;;;;5113765;28;20032;-67
2021/06/03 03:27:38;;;;;;;34.55;20.05;;;;;;;;;;5095813;28;20112;-67
2021/06/03 03:30:04;;;;;;;39.88;21.08;;;;;;;;;;5113695;28;20528;-67
2021/06/03 03:32:29;;;;;;;39.00;21.20;;;;;;;;;;5114002;28;20045;-67
2021/06/03 03:34:55;;;;;;;38.80;20.50;;;;;;;;;;5114087;28;20464;-66
2021/06/03 03:37:20;;;;;;;43.80;21.48;;;;;;;;;;5112998;28;20059;-66
2021/06/03 03:39:45;;;;;;;41.17;21.73;;;;;;;;;;5113103;28;20430;-67
2021/06/03 03:42:11;;;;;;;46.08;23.23;;;;;;;;;;5113840;28;20042;-66
2021/06/03 03:44:36;;;;;;;40.47;21.45;;;;;;;;;;5113469;28;20074;-66
2021/06/03 03:47:01;;;;;;;39.83;22.30;;;;;;;;;;5113893;28;20023;-67
2021/06/03 03:49:27;;;;;;;42.70;22.25;;;;;;;;;;5113480;28;20582;-66
2021/06/03 03:51:52;;;;;;;44.58;22.88;;;;;;;;;;5113658;28;20032;-66
2021/06/03 03:54:18;;;;;;;47.50;23.52;;;;;;;;;;5112910;28;20036;-66
2021/06/03 03:56:43;;;;;;;47.13;22.25;;;;;;;;;;5113295;28;20027;-67
2021/06/03 03:59:08;;;;;;;45.17;23.25;;;;;;;;;;5113043;28;20031;-66
2021/06/03 04:01:34;;;;;;;54.45;26.00;;;;;;;;;;5113078;28;20031;-66
2021/06/03 04:03:59;;;;;;;60.38;24.85;;;;;;;;;;5094996;28;20039;-66
2021/06/03 04:06:24;;;;;;;54.45;26.10;;;;;;;;;;5113640;28;20043;-66
2021/06/03 04:08:50;;;;;;;57.15;25.85;;;;;;;;;;5113129;28;20501;-66
2021/06/03 04:11:15;;;;;;;57.80;26.35;;;;;;;;;;5113330;28;20048;-67
2021/06/03 04:13:40;;;;;;;55.67;26.65;;;;;;;;;;5113269;28;20114;-66
2021/06/03 04:16:06;;;;;;;63.03;28.15;;;;;;;;;;5112829;28;20029;-67
2021/06/03 04:18:31;;;;;;;62.25;28.63;;;;;;;;;;5113346;28;20034;-66
2021/06/03 04:20:57;;;;;;;61.08;27.75;;;;;;;;;;5113259;28;20024;-66
2021/06/03 04:23:22;;;;;;;66.05;27.25;;;;;;;;;;5112821;28;20078;-67
2021/06/03 04:25:47;;;;;;;60.63;29.50;;;;;;;;;;5113165;28;20043;-67
2021/06/03 04:28:13;;;;;;;71.70;30.92;;;;;;;;;;5113600;28;20031;-67
2021/06/03 04:30:40;;;;;;;64.38;29.20;;;;;;;;;;5113056;28;20065;-66
2021/06/03 04:33:07;;;;;;;69.75;29.23;;;;;;;;;;5113118;28;20076;-66
2021/06/03 04:35:32;;;;;;;75.05;31.50;;;;;;;;;;5113075;28;20027;-66
2021/06/03 04:37:57;;;;;;;73.80;30.52;;;;;;;;;;5113324;28;20047;-66
2021/06/03 04:40:23;;;;;;;81.63;32.90;;;;;;;;;;5112792;28;20028;-66
2021/06/03 04:42:50;;;;;;;73.72;31.35;;;;;;;;;;5113229;28;20027;-66
2021/06/03 04:45:16;;;;;;;85.20;33.33;;;;;;;;;;5111654;28;20097;-66
2021/06/03 04:47:42;;;;;;;86.28;33.90;;;;;;;;;;5112872;28;20063;-66
2021/06/03 04:50:08;;;;;;;102.00;36.38;;;;;;;;;;5113002;28;20039;-66
2021/06/03 04:52:34;;;;;;;108.90;36.08;;;;;;;;;;5113085;28;20073;-67
2021/06/03 04:55:00;;;;;;;100.38;36.42;;;;;;;;;;5113012;28;20032;-67
2021/06/03 04:57:26;;;;;;;109.32;36.90;;;;;;;;;;5113308;28;20031;-67
2021/06/03 04:59:51;;;;;;;118.13;36.30;;;;;;;;;;5112877;28;20034;-66
2021/06/03 05:02:17;;;;;;;112.70;38.22;;;;;;;;;;5112820;28;20020;-67
2021/06/03 05:04:42;;;;;;;129.43;41.10;;;;;;;;;;5112485;28;20066;-67
2021/06/03 05:07:07;;;;;;;122.53;37.95;;;;;;;;;;5117071;28;20383;-67
2021/06/03 05:09:33;;;;;;;122.78;41.53;;;;;;;;;;5116245;28;20134;-67
2021/06/03 05:11:58;;;;;;;122.28;41.45;;;;;;;;;;5117092;28;20072;-67
2021/06/03 05:14:24;;;;;;;122.95;40.92;;;;;;;;;;5098132;28;20072;-66
2021/06/03 05:16:49;;;;;;;122.57;41.90;;;;;;;;;;5116710;28;20395;-66
2021/06/03 05:19:14;;;;;;;118.30;42.05;;;;;;;;;;5116557;28;20020;-67
2021/06/03 05:21:39;;;;;;;112.63;42.03;;;;;;;;;;5116590;28;20507;-67
2021/06/03 05:24:05;;;;;;;125.05;42.15;;;;;;;;;;5116063;28;20042;-66
2021/06/03 05:26:30;;;;;;;119.22;42.90;;;;;;;;;;5116536;28;20039;-66
2021/06/03 05:28:55;;;;;;;111.43;42.22;;;;;;;;;;5116677;28;20099;-67
2021/06/03 05:31:21;;;;;;;113.43;42.08;;;;;;;;;;5115759;28;20426;-66
2021/06/03 05:33:46;;;;;;;107.15;41.85;;;;;;;;;;5116466;28;20055;-67
2021/06/03 05:36:11;;;;;;;97.68;41.60;;;;;;;;;;5115891;28;20019;-67
2021/06/03 05:38:36;;;;;;;104.97;41.67;;;;;;;;;;5116177;28;20035;-66
2021/06/03 05:41:02;;;;;;;103.82;42.17;;;;;;;;;;5115916;28;20035;-65
2021/06/03 05:43:27;;;;;;;91.72;41.22;;;;;;;;;;5116140;28;20055;-64
2021/06/03 05:45:52;;;;;;;103.63;41.35;;;;;;;;;;5115717;28;20065;-64
2021/06/03 05:48:18;;;;;;;90.07;37.92;;;;;;;;;;5116598;28;20088;-65
2021/06/03 05:50:43;;;;;;;92.53;40.85;;;;;;;;;;5115309;28;20016;-64
2021/06/03 05:53:08;;;;;;;81.68;37.90;;;;;;;;;;5115974;28;20112;-65
2021/06/03 05:55:33;;;;;;;57.38;29.45;;;;;;;;;;5115767;28;20023;-64
2021/06/03 05:57:59;;;;;;;66.45;32.42;;;;;;;;;;5115612;28;20023;-65
2021/06/03 06:00:25;;;;;;;69.38;34.42;;;;;;;;;;5115373;28;20035;-64
2021/06/03 06:02:55;;;;;;;71.10;35.28;;;;;;;;;;5115787;28;20030;-65
2021/06/03 06:08:05;;;;;;;45.10;25.25;;;;;;;;;;5115882;28;20058;-65
2021/06/03 06:10:31;;;;;;;36.10;22.05;;;;;;;;;;5115232;28;20480;-64
2021/06/03 06:12:56;;;;;;;35.25;20.33;;;;;;;;;;5115782;28;20484;-65
2021/06/03 06:15:22;;;;;;;37.40;20.95;;;;;;;;;;5115013;28;20029;-65
2021/06/03 06:17:47;;;;;;;33.95;17.98;;;;;;;;;;5115033;28;20024;-64
2021/06/03 06:20:12;;;;;;;25.35;16.20;;;;;;;;;;5115216;28;20104;-65
2021/06/03 06:22:38;;;;;;;25.63;15.15;;;;;;;;;;5104417;28;20027;-64
2021/06/03 06:25:04;;;;;;;25.27;16.15;;;;;;;;;;5106802;28;20072;-65
2021/06/03 06:27:29;;;;;;;22.23;14.20;;;;;;;;;;5111710;28;20031;-65
2021/06/03 06:29:55;;;;;;;24.70;15.48;;;;;;;;;;5114474;28;20016;-65
2021/06/03 06:32:20;;;;;;;23.92;14.50;;;;;;;;;;5114633;28;20023;-65
2021/06/03 06:34:45;;;;;;;23.17;14.10;;;;;;;;;;5106860;28;20028;-65
2021/06/03 06:37:10;;;;;;;19.60;12.52;;;;;;;;;;5108731;28;20019;-65
2021/06/03 06:39:36;;;;;;;24.80;15.13;;;;;;;;;;5115112;28;20032;-65
2021/06/03 06:42:02;;;;;;;18.40;13.25;;;;;;;;;;5115348;28;20415;-66
2021/06/03 06:44:28;;;;;;;23.42;14.85;;;;;;;;;;5114468;28;20043;-66
2021/06/03 06:46:53;;;;;;;23.55;14.93;;;;;;;;;;5114731;28;20028;-65
2021/06/03 06:49:18;;;;;;;21.40;14.32;;;;;;;;;;5114067;28;20034;-65
2021/06/03 06:51:43;;;;;;;23.15;14.68;;;;;;;;;;5114999;28;20371;-65
2021/06/03 06:54:09;;;;;;;27.25;14.50;;;;;;;;;;5114973;28;20023;-65
2021/06/03 06:56:34;;;;;;;17.95;12.95;;;;;;;;;;5114778;28;20089;-65
2021/06/03 06:59:00;;;;;;;16.90;12.45;;;;;;;;;;5114928;28;20076;-65
2021/06/03 07:01:25;;;;;;;19.05;14.27;;;;;;;;;;5114750;28;20086;-65
2021/06/03 07:03:51;;;;;;;20.50;13.70;;;;;;;;;;5114735;28;20051;-65
2021/06/03 07:06:16;;;;;;;19.58;13.20;;;;;;;;;;5106732;28;20031;-65
2021/06/03 07:08:42;;;;;;;21.48;14.15;;;;;;;;;;5108429;28;20065;-66
2021/06/03 07:11:07;;;;;;;19.90;13.60;;;;;;;;;;5114260;28;20516;-65
2021/06/03 07:13:32;;;;;;;17.33;13.07;;;;;;;;;;5094543;28;20031;-66
2021/06/03 07:15:57;;;;;;;19.95;13.13;;;;;;;;;;5094135;28;20024;-66
2021/06/03 07:18:23;;;;;;;16.88;12.52;;;;;;;;;;5094229;28;20521;-66
2021/06/03 07:20:48;;;;;;;18.27;11.88;;;;;;;;;;5093897;28;20038;-66
2021/06/03 07:23:13;;;;;;;13.23;10.23;;;;;;;;;;5090271;28;20055;-65
2021/06/03 07:25:40;;;;;;;15.82;10.20;;;;;;;;;;5088210;28;20047;-66
2021/06/03 07:28:07;;;;;;;15.68;10.77;;;;;;;;;;5090001;28;20020;-69
2021/06/03 07:30:32;;;;;;;16.77;9.60;;;;;;;;;;5105701;28;20544;-67
2021/06/03 07:32:58;;;;;;;14.60;9.48;;;;;;;;;;5110645;28;20110;-68
2021/06/03 07:35:24;;;;;;;15.63;9.57;;;;;;;;;;5106895;28;20027;-68
2021/06/03 07:37:49;;;;;;;12.13;9.05;;;;;;;;;;5097949;28;20106;-67
2021/06/03 07:40:16;;;;;;;15.40;9.48;;;;;;;;;;5111214;28;20058;-67
2021/06/03 07:42:41;;;;;;;18.10;10.98;;;;;;;;;;5109995;28;20044;-68
2021/06/03 07:45:08;;;;;;;14.10;10.13;;;;;;;;;;5109343;28;20432;-67
2021/06/03 07:47:33;;;;;;;16.85;8.95;;;;;;;;;;5105875;28;20027;-67
2021/06/03 07:49:59;;;;;;;14.93;8.88;;;;;;;;;;5096017;28;20099;-67
2021/06/03 07:52:24;;;;;;;11.20;8.88;;;;;;;;;;5104678;28;20028;-65
2021/06/03 07:54:49;;;;;;;12.43;8.35;;;;;;;;;;5108023;28;20072;-68
2021/06/03 07:57:15;;;;;;;11.20;7.25;;;;;;;;;;5100732;28;20097;-68
2021/06/03 07:59:40;;;;;;;10.00;7.82;;;;;;;;;;5103619;28;20452;-67
2021/06/03 08:02:06;;;;;;;13.40;8.15;;;;;;;;;;5098665;28;20531;-67
2021/06/03 08:04:31;;;;;;;12.95;8.45;;;;;;;;;;5110252;28;20034;-68
2021/06/03 08:06:56;;;;;;;19.23;8.88;;;;;;;;;;5101572;28;20053;-67
2021/06/03 08:09:21;;;;;;;14.48;8.52;;;;;;;;;;5110755;28;20081;-67
2021/06/03 08:11:47;;;;;;;14.13;8.65;;;;;;;;;;5110827;28;20028;-68
2021/06/03 08:14:12;;;;;;;12.13;8.45;;;;;;;;;;5095629;28;20475;-67
2021/06/03 08:16:38;;;;;;;14.40;8.95;;;;;;;;;;5101042;28;20094;-68
2021/06/03 08:19:03;;;;;;;17.92;8.75;;;;;;;;;;5100810;28;20414;-68
2021/06/03 08:21:29;;;;;;;14.68;8.15;;;;;;;;;;5099861;28;20487;-66
2021/06/03 08:23:55;;;;;;;13.68;7.07;;;;;;;;;;5098260;28;20042;-67
2021/06/03 08:26:20;;;;;;;18.08;6.75;;;;;;;;;;5100228;28;20027;-67
2021/06/03 08:28:46;;;;;;;10.75;6.05;;;;;;;;;;5101685;28;20079;-67
2021/06/03 08:31:11;;;;;;;12.50;5.93;;;;;;;;;;5106971;28;20043;-67
2021/06/03 08:33:36;;;;;;;10.50;5.72;;;;;;;;;;5093898;28;20456;-67
2021/06/03 08:36:02;;;;;;;9.32;5.22;;;;;;;;;;5105059;28;20027;-68
2021/06/03 08:38:27;;;;;;;11.73;5.65;;;;;;;;;;5104344;28;20032;-67
2021/06/03 08:40:56;;;;;;;11.23;6.13;;;;;;;;;;5103964;28;20470;-67
2021/06/03 08:43:22;;;;;;;13.18;5.88;;;;;;;;;;5108168;28;20493;-68
2021/06/03 08:45:47;;;;;;;14.18;5.70;;;;;;;;;;5107718;28;20039;-67
2021/06/03 08:48:13;;;;;;;12.30;5.30;;;;;;;;;;5109366;28;20437;-67
2021/06/03 08:50:39;;;;;;;9.05;5.45;;;;;;;;;;5110983;28;20032;-67
2021/06/03 08:53:06;;;;;;;11.35;5.05;;;;;;;;;;5112153;28;20036;-65
2021/06/03 08:58:16;;;;;;;12.25;6.07;;;;;;;;;;5100692;28;20167;-65
2021/06/03 09:00:42;;;;;;;11.85;5.85;;;;;;;;;;5107770;28;20566;-65
2021/06/03 09:03:07;;;;;;;9.30;5.40;;;;;;;;;;5108312;28;20032;-65
2021/06/03 09:05:33;;;;;;;13.50;5.75;;;;;;;;;;5102751;28;20357;-64
2021/06/03 09:08:06;;;;;;;10.23;5.43;;;;;;;;;;5105460;28;20024;-65
2021/06/03 09:10:32;;;;;;;10.52;5.35;;;;;;;;;;5102547;28;20082;-65
2021/06/03 09:13:19;;;;;;;10.40;5.00;;;;;;;;;;5106656;28;20032;-67
2021/06/03 09:15:49;;;;;;;9.02;4.95;;;;;;;;;;5100671;28;20024;-69
2021/06/03 09:18:15;;;;;;;13.30;5.95;;;;;;;;;;5105617;28;20046;-69
2021/06/03 09:20:44;;;;;;;10.88;5.57;;;;;;;;;;5102617;28;20081;-70
2021/06/03 09:23:23;;;;;;;12.52;5.93;;;;;;;;;;5112621;28;20467;-69
2021/06/03 09:25:49;;;;;;;10.93;5.45;;;;;;;;;;5106885;28;20476;-69
2021/06/03 09:28:28;;;;;;;10.48;5.35;;;;;;;;;;5101059;28;20039;-69
2021/06/03 09:30:56;;;;;;;11.32;4.80;;;;;;;;;;5096112;28;20028;-69
2021/06/03 09:33:35;;;;;;;10.25;5.93;;;;;;;;;;5113226;28;20484;-69
2021/06/03 09:36:00;;;;;;;10.38;4.55;;;;;;;;;;5109739;28;20796;-69
2021/06/03 09:38:26;;;;;;;9.68;4.78;;;;;;;;;;5112792;28;20119;-68
2021/06/03 09:40:51;;;;;;;13.07;5.10;;;;;;;;;;5101672;28;20019;-68
2021/06/03 09:43:20;;;;;;;8.65;3.75;;;;;;;;;;5103712;28;20389;-68
2021/06/03 09:45:52;;;;;;;11.23;4.63;;;;;;;;;;5097029;28;20046;-68
2021/06/03 09:48:36;;;;;;;11.73;3.97;;;;;;;;;;5092185;28;20094;-68
2021/06/03 09:51:21;;;;;;;9.10;3.72;;;;;;;;;;5106210;28;20544;-69
2021/06/03 09:53:49;;;;;;;11.38;3.95;;;;;;;;;;5103387;28;20130;-69
2021/06/03 09:56:28;;;;;;;12.50;4.20;;;;;;;;;;5091611;28;20043;-70
2021/06/03 09:58:54;;;;;;;10.27;4.22;;;;;;;;;;5094136;28;20019;-69
2021/06/03 10:01:38;;;;;;;10.25;4.57;;;;;;;;;;5104347;28;20049;-69
2021/06/03 10:04:04;;;;;;;6.57;4.07;;;;;;;;;;5082414;28;20663;-70
2021/06/03 10:06:29;;;;;;;8.07;4.20;;;;;;;;;;5105906;28;20036;-70
2021/06/03 10:08:56;;;;;;;8.15;3.92;;;;;;;;;;5109431;28;20081;-69
2021/06/03 10:11:39;;;;;;;10.57;4.70;;;;;;;;;;5100309;28;20421;-69
2021/06/03 10:14:12;;;;;;;6.60;3.78;;;;;;;;;;5110729;28;20027;-70
2021/06/03 10:16:37;;;;;;;6.07;3.40;;;;;;;;;;5111615;28;20023;-70
2021/06/03 10:19:16;;;;;;;6.80;3.60;;;;;;;;;;5106695;28;20038;-69
2021/06/03 10:21:41;;;;;;;7.43;3.42;;;;;;;;;;5106367;28;20019;-70
2021/06/03 10:24:07;;;;;;;7.75;3.53;;;;;;;;;;5098542;28;20502;-70
2021/06/03 10:26:51;;;;;;;6.45;3.28;;;;;;;;;;5099936;28;20137;-70
2021/06/03 10:29:16;;;;;;;7.15;3.67;;;;;;;;;;5102173;28;20032;-71
2021/06/03 10:31:41;;;;;;;6.38;3.85;;;;;;;;;;5110371;28;20035;-71
2021/06/03 10:34:08;;;;;;;10.85;4.07;;;;;;;;;;5093530;28;20020;-71
2021/06/03 10:36:33;;;;;;;10.52;3.70;;;;;;;;;;5094926;28;20035;-71
2021/06/03 10:38:58;;;;;;;7.30;3.60;;;;;;;;;;5104265;28;20039;-70
2021/06/03 10:41:24;;;;;;;7.72;3.88;;;;;;;;;;5101340;28;20412;-70
2021/06/03 10:43:49;;;;;;;6.03;3.45;;;;;;;;;;5092350;28;20031;-70
2021/06/03 10:46:15;;;;;;;6.65;3.50;;;;;;;;;;5106708;28;20074;-70
2021/06/03 10:48:41;;;;;;;7.88;3.60;;;;;;;;;;5094599;28;20098;-70
2021/06/03 10:51:08;;;;;;;5.30;3.10;;;;;;;;;;5109461;28;20035;-69
2021/06/03 10:53:33;;;;;;;6.78;3.78;;;;;;;;;;5106925;28;20110;-71
2021/06/03 10:56:15;;;;;;;11.50;3.20;;;;;;;;;;5109963;28;20748;-69
2021/06/03 10:58:41;;;;;;;9.90;3.65;;;;;;;;;;5094604;28;20052;-71
2021/06/03 11:01:07;;;;;;;7.82;3.30;;;;;;;;;;5101191;28;20145;-69
2021/06/03 11:03:38;;;;;;;7.50;3.45;;;;;;;;;;5100962;28;20028;-69
2021/06/03 11:06:04;;;;;;;8.18;3.55;;;;;;;;;;5098688;28;20138;-69
2021/06/03 11:08:30;;;;;;;7.05;3.13;;;;;;;;;;5103382;28;20042;-70
2021/06/03 11:11:15;;;;;;;9.77;3.30;;;;;;;;;;5101061;28;20073;-70
2021/06/03 11:13:47;;;;;;;11.60;3.10;;;;;;;;;;5098676;28;20441;-70
2021/06/03 11:16:12;;;;;;;6.28;3.50;;;;;;;;;;5106292;28;20131;-70
2021/06/03 11:18:58;;;;;;;12.02;4.22;;;;;;;;;;5104192;28;20114;-69
2021/06/03 11:21:23;;;;;;;;;;;;;;;;;;5074344;28;20044;-70
2021/06/03 11:23:48;;;;;;;9.57;3.75;;;;;;;;;;5102623;28;19918;-70
2021/06/03 11:26:33;;;;;;;7.72;3.40;;;;;;;;;;5090137;28;20036;-70
2021/06/03 11:29:17;;;;;;;4.60;2.47;;;;;;;;;;5095668;28;20024;-70
2021/06/03 11:31:44;;;;;;;5.82;2.75;;;;;;;;;;5101973;28;20115;-71
2021/06/03 11:34:09;;;;;;;5.40;3.10;;;;;;;;;;5091745;28;20107;-70
2021/06/03 11:36:38;;;;;;;7.65;3.65;;;;;;;;;;5109234;28;20106;-71
2021/06/03 11:39:05;;;;;;;14.82;3.88;;;;;;;;;;5100878;28;20099;-70
2021/06/03 11:41:38;;;;;;;9.73;3.55;;;;;;;;;;5097520;28;20114;-70
2021/06/03 11:44:06;;;;;;;4.78;2.90;;;;;;;;;;5088084;28;20040;-70
2021/06/03 11:46:50;;;;;;;8.85;3.67;;;;;;;;;;5091050;28;20434;-70
2021/06/03 11:49:38;;;;;;;7.32;3.08;;;;;;;;;;5089596;28;20028;-70
2021/06/03 11:52:06;;;;;;;6.45;2.60;;;;;;;;;;5108377;28;20114;-70
2021/06/03 11:55:10;;;;;;;8.27;2.63;;;;;;;;;;5109868;28;20055;-69
2021/06/03 11:57:38;;;;;;;8.32;3.03;;;;;;;;;;5023458;28;20041;-69
2021/06/03 12:00:13;;;;;;;9.18;3.28;;;;;;;;;;5018053;28;20042;-69
2021/06/03 12:02:40;;;;;;;6.20;3.03;;;;;;;;;;5069482;28;20048;-69
2021/06/03 12:05:11;;;;;;;6.75;2.60;;;;;;;;;;5104502;28;20985;-69
2021/06/03 12:07:43;;;;;;;5.47;2.72;;;;;;;;;;5100884;28;20043;-70
2021/06/03 12:10:08;;;;;;;4.45;2.50;;;;;;;;;;5098067;28;20123;-69
2021/06/03 12:12:34;;;;;;;5.15;2.40;;;;;;;;;;5094428;28;20114;-70
2021/06/03 12:14:59;;;;;;;4.38;2.40;;;;;;;;;;5092314;28;20030;-70
2021/06/03 12:17:25;;;;;;;5.57;2.40;;;;;;;;;;5098907;28;20067;-69
2021/06/03 12:19:52;;;;;;;4.32;2.30;;;;;;;;;;5098166;28;20053;-69
2021/06/03 12:22:19;;;;;;;4.28;2.08;;;;;;;;;;5096569;28;20023;-70
2021/06/03 12:24:44;;;;;;;6.13;2.45;;;;;;;;;;5095931;28;20062;-67
2021/06/03 12:27:18;;;;;;;5.82;2.40;;;;;;;;;;5102092;28;20414;-70
2021/06/03 12:29:44;;;;;;;6.60;2.08;;;;;;;;;;5099286;28;20081;-69
2021/06/03 12:32:11;;;;;;;5.55;2.35;;;;;;;;;;5104005;28;20031;-70
2021/06/03 12:34:36;;;;;;;5.57;1.92;;;;;;;;;;5099791;28;20024;-69
2021/06/03 12:37:16;;;;;;;7.97;1.83;;;;;;;;;;5100249;28;20036;-70
2021/06/03 12:39:41;;;;;;;7.00;1.63;;;;;;;;;;5096896;28;20031;-70
2021/06/03 12:42:06;;;;;;;13.88;1.60;;;;;;;;;;5102821;28;20034;-70
2021/06/03 12:44:32;;;;;;;5.00;1.48;;;;;;;;;;5093802;28;20032;-69
2021/06/03 12:47:00;;;;;;;5.05;1.50;;;;;;;;;;5094992;28;20024;-69
2021/06/03 12:49:29;;;;;;;3.53;1.77;;;;;;;;;;5084832;28;20146;-69
2021/06/03 12:51:56;;;;;;;2.40;1.42;;;;;;;;;;5105720;28;20422;-69
2021/06/03 12:54:47;;;;;;;4.82;1.70;;;;;;;;;;5105580;28;20475;-70
2021/06/03 12:57:14;;;;;;;7.55;1.52;;;;;;;;;;5102354;28;20042;-69
2021/06/03 12:59:41;;;;;;;3.10;1.17;;;;;;;;;;5106325;28;20146;-69
2021/06/03 13:02:08;;;;;;;7.18;1.48;;;;;;;;;;5105093;28;20407;-69
2021/06/03 13:04:37;;;;;;;2.13;1.10;;;;;;;;;;5097055;28;20047;-70
2021/06/03 13:07:04;;;;;;;6.30;1.40;;;;;;;;;;5102025;28;20059;-70
2021/06/03 13:09:30;;;;;;;4.00;1.10;;;;;;;;;;5100987;28;20070;-69
2021/06/03 13:12:03;;;;;;;6.00;1.55;;;;;;;;;;5093557;28;20019;-69
2021/06/03 13:14:35;;;;;;;6.82;1.50;;;;;;;;;;5097367;28;20036;-70
2021/06/03 13:17:04;;;;;;;6.95;1.52;;;;;;;;;;5107028;28;20040;-70
2021/06/03 13:19:30;;;;;;;6.15;1.48;;;;;;;;;;5102096;28;20035;-69
2021/06/03 13:21:58;;;;;;;5.80;1.50;;;;;;;;;;5088645;28;20117;-69
2021/06/03 13:24:23;;;;;;;4.28;1.33;;;;;;;;;;5088669;28;20032;-69
2021/06/03 13:26:49;;;;;;;4.25;1.40;;;;;;;;;;5091577;28;20032;-69
2021/06/03 13:29:15;;;;;;;5.28;1.95;;;;;;;;;;5107957;28;20031;-70
2021/06/03 13:31:41;;;;;;;3.90;1.60;;;;;;;;;;5102610;28;20027;-69
2021/06/03 13:34:25;;;;;;;6.13;1.20;;;;;;;;;;5112122;28;20120;-69
2021/06/03 13:37:01;;;;;;;2.80;1.15;;;;;;;;;;5107023;28;20053;-70
2021/06/03 13:39:28;;;;;;;3.08;1.33;;;;;;;;;;5093203;28;20035;-69
2021/06/03 13:41:56;;;;;;;4.68;1.70;;;;;;;;;;5101913;28;20479;-70
2021/06/03 13:44:22;;;;;;;2.65;1.38;;;;;;;;;;5108202;28;20038;-71
2021/06/03 13:46:47;;;;;;;2.75;1.33;;;;;;;;;;5110338;28;20020;-69
2021/06/03 13:49:26;;;;;;;4.22;1.17;;;;;;;;;;5108648;28;20357;-69
2021/06/03 13:52:01;;;;;;;4.15;1.08;;;;;;;;;;5099744;28;20043;-70
2021/06/03 13:54:27;;;;;;;10.07;1.40;;;;;;;;;;5100223;28;20039;-70
2021/06/03 13:56:52;;;;;;;6.63;1.30;;;;;;;;;;5102760;28;20031;-69
2021/06/03 13:59:17;;;;;;;3.13;1.17;;;;;;;;;;5096758;28;20036;-69
2021/06/03 14:01:46;;;;;;;5.30;1.75;;;;;;;;;;5105321;28;20428;-69
2021/06/03 14:04:13;;;;;;;7.68;1.75;;;;;;;;;;5105743;28;20074;-69
2021/06/03 14:06:46;;;;;;;3.72;1.38;;;;;;;;;;5107671;28;20024;-69
2021/06/03 14:09:21;;;;;;;3.40;1.20;;;;;;;;;;5099412;28;20442;-69
2021/06/03 14:11:59;;;;;;;5.10;1.40;;;;;;;;;;5108538;28;20030;-69
2021/06/03 14:14:28;;;;;;;6.25;1.23;;;;;;;;;;5111134;28;20055;-69
2021/06/03 14:16:56;;;;;;;8.18;1.30;;;;;;;;;;5098955;28;20620;-70
2021/06/03 14:19:21;;;;;;;4.13;1.13;;;;;;;;;;5109413;28;20020;-70
2021/06/03 14:21:48;;;;;;;3.97;1.35;;;;;;;;;;5105324;28;20034;-69
2021/06/03 14:24:31;;;;;;;2.90;1.10;;;;;;;;;;5096716;28;20032;-69
2021/06/03 14:27:07;;;;;;;2.97;1.35;;;;;;;;;;5103502;28;20024;-70
2021/06/03 14:29:47;;;;;;;4.57;1.65;;;;;;;;;;5101554;28;20065;-69
2021/06/03 14:32:14;;;;;;;4.07;1.58;;;;;;;;;;5094917;28;20048;-68